Time;durP1;ratioP1;P1;durP2;ratioP2;P2;SDS_P1;SDS_P2;PMS_P1;PMS_P2;Temp;Humidity;BMP_temperature;BMP_pressure;BME280_temperature;BME280_humidity;BME280_pressure;Samples;Min_cycle;Max_cycle;Signal;HPM_P1;HPM_P2
2023/04/03 00:00:11;;;;;;;2.93;2.60;;;4.30;99.90;;;;;;5015292;28;20187;-73
2023/04/03 00:02:37;;;;;;;2.50;2.30;;;4.30;99.90;;;;;;5026249;28;20217;-73
2023/04/03 00:05:02;;;;;;;5.17;2.73;;;4.20;99.90;;;;;;5019660;28;21149;-73
2023/04/03 00:07:28;;;;;;;3.00;2.80;;;4.20;99.90;;;;;;5015271;28;20227;-73
2023/04/03 00:09:53;;;;;;;2.83;2.40;;;4.20;99.90;;;;;;5011397;28;20198;-74
2023/04/03 00:12:19;;;;;;;2.50;2.17;;;4.20;99.90;;;;;;5010923;28;20222;-73
2023/04/03 00:14:44;;;;;;;3.23;2.90;;;4.10;99.90;;;;;;4993809;28;20194;-73
2023/04/03 00:17:10;;;;;;;2.83;2.73;;;4.20;99.90;;;;;;5021606;28;20194;-73
2023/04/03 00:19:35;;;;;;;3.73;3.10;;;4.10;99.90;;;;;;5015079;28;20211;-73
2023/04/03 00:22:01;;;;;;;2.93;2.73;;;4.10;99.90;;;;;;5010818;28;20216;-72
2023/04/03 00:24:26;;;;;;;3.57;2.97;;;4.10;99.90;;;;;;5019039;28;20245;-72
2023/04/03 00:26:52;;;;;;;8.00;3.37;;;4.10;99.90;;;;;;5017851;28;20560;-73
2023/04/03 00:29:17;;;;;;;3.60;2.70;;;4.10;99.90;;;;;;5011814;28;20284;-73
2023/04/03 00:31:43;;;;;;;4.07;3.33;;;4.10;99.90;;;;;;5010854;28;20220;-72
2023/04/03 00:34:08;;;;;;;3.47;2.73;;;4.10;99.90;;;;;;5011000;28;20219;-72
2023/04/03 00:36:34;;;;;;;2.80;2.60;;;4.10;99.90;;;;;;5010833;28;20186;-73
2023/04/03 00:38:59;;;;;;;3.43;3.23;;;4.20;99.90;;;;;;5011085;28;20656;-73
2023/04/03 00:41:25;;;;;;;5.40;3.40;;;4.10;99.90;;;;;;5020396;28;20202;-73
2023/04/03 00:43:50;;;;;;;2.50;2.40;;;4.10;99.90;;;;;;5022353;28;20671;-73
2023/04/03 00:46:16;;;;;;;2.93;2.40;;;4.10;99.90;;;;;;5015755;28;20291;-73
2023/04/03 00:48:44;;;;;;;2.73;2.50;;;4.00;99.90;;;;;;5015252;28;20199;-73
2023/04/03 00:51:14;;;;;;;3.60;3.23;;;4.10;99.90;;;;;;5019010;28;20689;-73
2023/04/03 00:53:45;;;;;;;4.03;2.97;;;4.10;99.90;;;;;;5015467;28;20432;-73
2023/04/03 00:56:15;;;;;;;3.10;2.80;;;4.10;99.90;;;;;;5024196;28;20436;-73
2023/04/03 00:58:48;;;;;;;3.50;3.20;;;4.00;99.90;;;;;;5018853;28;20488;-72
2023/04/03 02:31:51;;;;;;;4.30;3.40;;;3.90;99.90;;;;;;5471981;23;20527;-70
2023/04/03 02:34:17;;;;;;;3.77;2.70;;;3.90;99.90;;;;;;5011240;28;20794;-72
2023/04/03 02:36:43;;;;;;;3.20;3.00;;;3.80;99.90;;;;;;5012944;28;20317;-72
2023/04/03 02:39:09;;;;;;;4.90;3.30;;;3.80;99.90;;;;;;5021106;28;20992;-73
2023/04/03 02:41:35;;;;;;;4.50;3.33;;;3.80;99.90;;;;;;5012787;28;20233;-74
2023/04/03 02:44:06;;;;;;;2.87;2.63;;;3.90;99.90;;;;;;5020275;28;20926;-73
2023/04/03 02:46:32;;;;;;;8.17;3.30;;;3.90;99.90;;;;;;5021165;28;20467;-72
2023/04/03 02:48:58;;;;;;;3.33;3.13;;;3.90;99.90;;;;;;5012746;28;20431;-73
2023/04/03 02:51:23;;;;;;;4.00;3.07;;;3.80;99.90;;;;;;5012389;28;20487;-72
2023/04/03 02:53:50;;;;;;;4.07;2.43;;;3.90;99.90;;;;;;5020959;28;20194;-72
2023/04/03 02:56:17;;;;;;;3.00;2.80;;;3.90;99.90;;;;;;5021299;28;20229;-72
2023/04/03 02:58:42;;;;;;;3.23;3.03;;;3.90;99.90;;;;;;5028010;28;20432;-72
2023/04/03 03:01:08;;;;;;;2.73;2.50;;;3.80;99.90;;;;;;5019440;28;20450;-71
2023/04/03 03:03:34;;;;;;;3.73;3.43;;;3.80;99.90;;;;;;5020324;28;20185;-72
2023/04/03 03:06:13;;;;;;;4.87;3.17;;;3.90;99.90;;;;;;5012412;28;20774;-72
2023/04/03 03:08:38;;;;;;;5.00;2.67;;;3.80;99.90;;;;;;5016134;28;20189;-72
2023/04/03 03:11:04;;;;;;;2.80;2.60;;;3.80;99.90;;;;;;4998413;28;20469;-73
2023/04/03 03:13:30;;;;;;;5.20;2.70;;;3.80;99.90;;;;;;5020309;28;20194;-72
2023/04/03 03:15:56;;;;;;;5.13;3.30;;;3.90;99.90;;;;;;5012427;28;20438;-72
2023/04/03 03:18:22;;;;;;;4.20;2.67;;;3.90;99.90;;;;;;5022308;28;20510;-73
2023/04/03 03:20:52;;;;;;;3.10;2.80;;;3.90;99.90;;;;;;5012283;28;20235;-72
2023/04/03 03:23:18;;;;;;;3.43;3.07;;;3.90;99.90;;;;;;5020106;28;20430;-71
2023/04/03 03:25:44;;;;;;;3.80;2.33;;;3.90;99.90;;;;;;5012113;28;20426;-73
2023/04/03 03:28:09;;;;;;;4.60;2.77;;;3.90;99.90;;;;;;5019842;28;20196;-72
2023/04/03 03:30:35;;;;;;;2.80;2.60;;;3.80;99.90;;;;;;5011781;28;20690;-72
2023/04/03 03:33:01;;;;;;;3.17;2.73;;;3.90;99.90;;;;;;5011891;28;20194;-71
2023/04/03 03:35:26;;;;;;;2.80;2.60;;;3.90;99.90;;;;;;5021714;28;20190;-72
2023/04/03 03:37:52;;;;;;;5.57;2.67;;;3.90;99.90;;;;;;5026176;28;20260;-71
2023/04/03 03:40:17;;;;;;;3.07;2.47;;;3.90;99.90;;;;;;5011373;28;20192;-70
2023/04/03 03:42:43;;;;;;;2.40;2.30;;;3.80;99.90;;;;;;5016458;28;20199;-72
2023/04/03 03:45:09;;;;;;;3.00;2.80;;;3.80;99.90;;;;;;5015599;28;20220;-72
2023/04/03 03:47:35;;;;;;;2.90;2.47;;;3.80;99.90;;;;;;5014592;28;20201;-72
2023/04/03 03:50:01;;;;;;;4.50;2.60;;;3.80;99.90;;;;;;5016741;28;20916;-71
2023/04/03 03:52:26;;;;;;;3.77;3.47;;;3.80;99.90;;;;;;5011084;28;20573;-72
2023/04/03 03:54:52;;;;;;;8.10;3.40;;;3.80;99.90;;;;;;5011691;28;20247;-71
2023/04/03 03:57:17;;;;;;;3.23;3.03;;;3.80;99.90;;;;;;5011162;28;20205;-72
2023/04/03 03:59:44;;;;;;;7.97;3.47;;;3.90;99.90;;;;;;5011623;28;20179;-73
2023/04/03 04:02:10;;;;;;;7.37;2.60;;;3.90;99.90;;;;;;5011408;28;20640;-73
2023/04/03 04:04:36;;;;;;;7.23;2.50;;;3.90;99.90;;;;;;5011422;28;20481;-72
2023/04/03 04:07:01;;;;;;;3.23;2.80;;;3.90;99.90;;;;;;5011190;28;20423;-73
2023/04/03 04:09:27;;;;;;;4.80;2.60;;;3.90;99.90;;;;;;5011064;28;20193;-71
2023/04/03 04:11:53;;;;;;;4.80;2.73;;;3.90;99.90;;;;;;5019390;28;20243;-72
2023/04/03 04:14:20;;;;;;;2.67;2.50;;;3.90;99.90;;;;;;5011063;28;20249;-73
2023/04/03 04:16:46;;;;;;;3.87;2.97;;;3.90;99.90;;;;;;5014771;28;21120;-72
2023/04/03 04:19:12;;;;;;;4.20;2.43;;;3.90;99.90;;;;;;5014803;28;20477;-72
2023/04/03 04:21:39;;;;;;;3.77;2.73;;;3.90;99.90;;;;;;5009629;28;20477;-72
2023/04/03 04:24:05;;;;;;;4.20;2.63;;;3.90;99.90;;;;;;5011392;28;20242;-73
2023/04/03 04:26:30;;;;;;;3.70;3.40;;;3.90;99.90;;;;;;5010981;28;20873;-73
2023/04/03 04:28:56;;;;;;;4.30;2.70;;;3.90;99.90;;;;;;5016852;28;20453;-73
2023/04/03 04:31:21;;;;;;;3.33;2.87;;;3.90;99.90;;;;;;5013133;28;20682;-72
2023/04/03 04:33:47;;;;;;;2.83;2.63;;;3.90;99.90;;;;;;5011126;28;20193;-73
2023/04/03 04:36:14;;;;;;;2.63;2.43;;;4.00;99.90;;;;;;5010913;28;20182;-72
2023/04/03 04:38:40;;;;;;;2.73;2.50;;;4.00;99.90;;;;;;5010880;28;20668;-72
2023/04/03 04:41:05;;;;;;;3.13;2.93;;;4.00;99.90;;;;;;5025827;28;20446;-73
2023/04/03 04:43:31;;;;;;;3.57;2.60;;;4.00;99.90;;;;;;5014194;28;20432;-74
2023/04/03 04:46:01;;;;;;;3.33;3.13;;;4.00;99.90;;;;;;5022574;28;20313;-73
2023/04/03 04:48:27;;;;;;;3.60;2.87;;;4.00;99.90;;;;;;5014222;28;20567;-72
2023/04/03 04:50:52;;;;;;;2.10;2.00;;;4.00;99.90;;;;;;5017493;28;20467;-72
2023/04/03 04:53:17;;;;;;;4.90;2.30;;;4.00;99.90;;;;;;5010561;28;20189;-71
2023/04/03 04:55:43;;;;;;;2.43;2.20;;;4.00;99.90;;;;;;5010874;28;20312;-72
2023/04/03 04:58:08;;;;;;;2.50;2.30;;;4.10;99.90;;;;;;5017335;28;20288;-72
2023/04/03 05:00:34;;;;;;;4.30;2.60;;;4.00;99.90;;;;;;5023297;28;20185;-72
2023/04/03 05:03:00;;;;;;;2.30;2.10;;;4.10;99.90;;;;;;5029402;28;20196;-72
2023/04/03 05:05:25;;;;;;;2.67;2.07;;;4.10;99.90;;;;;;5017591;28;20612;-72
2023/04/03 05:07:50;;;;;;;2.10;1.93;;;4.10;99.90;;;;;;5014482;28;20174;-72
2023/04/03 05:10:16;;;;;;;2.53;2.33;;;4.10;99.90;;;;;;5027262;28;20210;-72
2023/04/03 05:12:41;;;;;;;2.67;2.20;;;4.10;99.90;;;;;;5014997;28;20732;-73
2023/04/03 05:15:08;;;;;;;2.57;2.37;;;4.20;99.90;;;;;;5025312;28;20189;-72
2023/04/03 05:17:33;;;;;;;2.67;2.47;;;4.20;99.90;;;;;;5011923;28;20185;-72
2023/04/03 05:19:59;;;;;;;2.60;2.40;;;4.20;99.90;;;;;;5014532;28;20485;-72
2023/04/03 05:22:24;;;;;;;2.67;2.47;;;4.20;99.90;;;;;;5003545;28;20220;-71
2023/04/03 05:24:50;;;;;;;2.90;2.20;;;4.20;99.90;;;;;;5009891;28;20197;-71
2023/04/03 05:27:16;;;;;;;4.00;2.40;;;4.20;99.90;;;;;;5011643;28;20197;-72
2023/04/03 05:29:43;;;;;;;2.90;2.70;;;4.20;99.90;;;;;;5013836;28;20196;-72
2023/04/03 05:32:09;;;;;;;3.13;2.83;;;4.20;99.90;;;;;;5029129;28;20848;-73
2023/04/03 05:34:35;;;;;;;2.37;2.27;;;4.20;99.90;;;;;;5015195;28;20435;-73
2023/04/03 05:37:02;;;;;;;3.20;2.90;;;4.20;99.90;;;;;;5027892;28;20431;-73
2023/04/03 05:39:28;;;;;;;2.33;2.13;;;4.20;99.90;;;;;;5032516;28;20206;-71
2023/04/03 05:41:54;;;;;;;4.10;2.50;;;4.20;99.90;;;;;;5013825;28;20496;-72
2023/04/03 05:44:19;;;;;;;2.20;2.10;;;4.20;99.90;;;;;;5022279;28;20198;-72
2023/04/03 05:46:45;;;;;;;2.73;2.53;;;4.20;99.90;;;;;;5017117;28;20196;-73
2023/04/03 05:49:10;;;;;;;2.80;2.60;;;4.20;99.90;;;;;;5018595;28;20196;-72
2023/04/03 05:51:40;;;;;;;2.53;2.30;;;4.20;99.90;;;;;;5015720;28;20218;-72
2023/04/03 05:54:27;;;;;;;2.67;2.53;;;4.20;99.90;;;;;;5025513;28;20265;-72
2023/04/03 05:56:53;;;;;;;2.40;2.30;;;4.20;99.90;;;;;;5021761;28;20913;-72
2023/04/03 05:59:19;;;;;;;3.17;2.90;;;4.20;99.90;;;;;;5013709;28;20563;-70
2023/04/03 06:01:45;;;;;;;2.57;2.00;;;4.30;99.90;;;;;;5029765;28;20202;-71
2023/04/03 06:04:11;;;;;;;3.70;2.17;;;4.30;99.90;;;;;;5013624;28;20452;-72
2023/04/03 06:07:03;;;;;;;2.47;2.23;;;4.40;99.90;;;;;;5023800;28;20514;-72
2023/04/03 06:09:29;;;;;;;3.27;2.27;;;4.40;99.90;;;;;;5021177;28;20205;-72
2023/04/03 06:11:55;;;;;;;2.73;2.53;;;4.50;99.90;;;;;;5020104;28;20534;-72
2023/04/03 06:14:21;;;;;;;3.87;1.97;;;4.50;99.90;;;;;;5021727;28;20418;-72
2023/04/03 06:16:47;;;;;;;8.97;5.00;;;4.50;99.90;;;;;;5013545;28;20571;-73
2023/04/03 06:19:12;;;;;;;3.17;2.73;;;4.50;99.90;;;;;;5021718;28;20270;-72
2023/04/03 06:21:38;;;;;;;3.83;2.50;;;4.40;99.90;;;;;;5015710;28;20221;-72
2023/04/03 06:24:05;;;;;;;3.60;2.80;;;4.40;99.90;;;;;;5028174;28;20189;-73
2023/04/03 06:26:31;;;;;;;2.90;2.70;;;4.40;99.90;;;;;;5014272;28;20186;-72
2023/04/03 06:28:57;;;;;;;3.73;2.37;;;4.50;99.90;;;;;;5027690;28;20457;-73
2023/04/03 06:31:22;;;;;;;2.87;2.37;;;4.50;99.90;;;;;;5012644;28;20220;-73
2023/04/03 06:33:48;;;;;;;4.50;2.67;;;4.50;99.90;;;;;;5016625;28;20223;-73
2023/04/03 06:36:13;;;;;;;8.40;2.60;;;4.60;99.90;;;;;;5025658;28;20188;-72
2023/04/03 06:38:39;;;;;;;3.17;2.97;;;4.70;99.90;;;;;;5012137;28;20660;-73
2023/04/03 06:41:04;;;;;;;3.37;2.60;;;4.70;99.90;;;;;;5021138;28;20200;-73
2023/04/03 06:43:33;;;;;;;4.97;2.30;;;4.70;99.90;;;;;;5022495;28;20206;-73
2023/04/03 06:45:58;;;;;;;7.40;2.60;;;4.70;99.90;;;;;;5025735;28;20182;-73
2023/04/03 06:48:24;;;;;;;3.80;2.27;;;4.60;99.90;;;;;;5025331;28;20431;-73
2023/04/03 06:50:49;;;;;;;2.43;2.20;;;4.60;99.90;;;;;;5013163;28;20225;-73
2023/04/03 06:53:15;;;;;;;2.03;1.93;;;4.60;99.90;;;;;;5013600;28;20214;-73
2023/04/03 06:55:41;;;;;;;2.37;2.17;;;4.70;99.90;;;;;;5013589;28;20268;-74
2023/04/03 06:58:06;;;;;;;4.53;2.63;;;4.70;99.90;;;;;;5027050;28;20292;-72
2023/04/03 07:00:32;;;;;;;2.93;2.37;;;4.60;99.90;;;;;;5014787;28;20708;-73
2023/04/03 07:02:58;;;;;;;4.67;3.20;;;4.60;99.90;;;;;;5012511;28;20238;-72
2023/04/03 07:05:24;;;;;;;5.30;2.40;;;4.60;99.90;;;;;;5028645;28;20285;-75
2023/04/03 07:07:50;;;;;;;6.20;3.43;;;4.70;99.90;;;;;;5020685;28;20186;-72
2023/04/03 07:10:16;;;;;;;3.80;2.50;;;4.70;99.90;;;;;;5012333;28;20432;-73
2023/04/03 07:12:41;;;;;;;4.07;2.93;;;4.80;99.90;;;;;;4999176;28;20257;-73
2023/04/03 07:15:08;;;;;;;3.50;3.30;;;4.90;99.90;;;;;;5018224;28;20622;-73
2023/04/03 07:17:34;;;;;;;7.63;3.07;;;4.90;99.90;;;;;;5022591;28;20193;-73
2023/04/03 07:19:59;;;;;;;4.33;2.77;;;4.90;99.90;;;;;;5023845;28;20430;-72
2023/04/03 07:22:25;;;;;;;2.00;1.80;;;5.00;99.90;;;;;;5015283;28;21042;-73
2023/04/03 07:24:51;;;;;;;4.63;3.07;;;5.10;99.90;;;;;;5020419;28;20197;-73
2023/04/03 07:27:17;;;;;;;2.43;2.33;;;5.10;99.90;;;;;;5011647;28;20229;-73
2023/04/03 07:29:43;;;;;;;4.20;2.27;;;5.20;99.90;;;;;;5011774;28;20217;-74
2023/04/03 07:32:09;;;;;;;3.47;2.50;;;5.30;99.90;;;;;;5011714;28;20485;-73
2023/04/03 07:34:35;;;;;;;3.70;2.90;;;5.40;99.90;;;;;;5011908;28;20525;-73
2023/04/03 07:37:02;;;;;;;3.30;2.80;;;5.50;99.90;;;;;;5011576;28;20514;-72
2023/04/03 07:39:28;;;;;;;5.50;2.47;;;5.60;99.90;;;;;;5011580;28;20187;-73
2023/04/03 07:41:55;;;;;;;4.67;2.70;;;5.70;99.90;;;;;;5011750;28;20450;-73
2023/04/03 07:44:21;;;;;;;3.30;2.30;;;5.70;99.90;;;;;;5019890;28;20444;-74
2023/04/03 07:46:46;;;;;;;6.13;3.70;;;5.70;99.90;;;;;;5011407;28;20485;-73
2023/04/03 07:49:12;;;;;;;2.53;2.33;;;5.80;99.90;;;;;;5019682;28;20437;-74
2023/04/03 07:51:37;;;;;;;2.40;2.20;;;6.00;99.90;;;;;;5011472;28;20596;-74
2023/04/03 07:54:04;;;;;;;5.50;3.20;;;6.00;99.90;;;;;;5016515;28;20263;-74
2023/04/03 07:56:29;;;;;;;5.40;2.87;;;6.00;99.90;;;;;;5023015;28;20276;-74
2023/04/03 07:58:55;;;;;;;3.33;2.90;;;6.20;99.90;;;;;;5020176;28;20458;-74
2023/04/03 08:01:20;;;;;;;3.60;3.30;;;6.30;99.90;;;;;;5011358;28;20274;-74
2023/04/03 08:03:46;;;;;;;7.90;4.10;;;6.50;99.90;;;;;;5011285;28;20200;-74
2023/04/03 08:06:13;;;;;;;4.27;2.90;;;6.60;99.90;;;;;;5017187;28;20218;-74
2023/04/03 08:08:39;;;;;;;2.97;2.77;;;6.60;99.90;;;;;;5013215;28;20196;-75
2023/04/03 08:11:05;;;;;;;2.67;2.50;;;6.50;99.90;;;;;;5011108;28;20623;-73
2023/04/03 08:13:31;;;;;;;2.70;2.50;;;6.40;99.90;;;;;;5011119;28;20188;-74
2023/04/03 08:15:58;;;;;;;3.00;2.80;;;6.50;99.90;;;;;;5019637;28;20432;-72
2023/04/03 08:18:25;;;;;;;7.80;2.97;;;6.50;99.90;;;;;;5010829;28;20419;-74
2023/04/03 08:20:52;;;;;;;5.23;4.70;;;6.70;99.90;;;;;;5010938;28;20484;-73
2023/04/03 08:23:18;;;;;;;2.97;2.50;;;6.90;99.90;;;;;;5011229;28;20441;-73
2023/04/03 08:25:44;;;;;;;3.37;2.53;;;6.80;99.90;;;;;;5013377;28;20435;-73
2023/04/03 08:28:11;;;;;;;5.90;2.27;;;6.80;99.90;;;;;;5017018;28;20431;-74
2023/04/03 08:30:42;;;;;;;8.97;2.93;;;6.80;99.90;;;;;;5010652;28;20438;-73
2023/04/03 08:33:08;;;;;;;2.53;2.30;;;6.90;99.90;;;;;;5016245;28;20969;-73
2023/04/03 08:35:39;;;;;;;4.70;2.57;;;7.00;99.90;;;;;;5010776;28;20885;-73
2023/04/03 08:38:04;;;;;;;5.10;2.73;;;7.20;99.90;;;;;;5020131;28;20442;-73
2023/04/03 08:40:30;;;;;;;3.67;2.80;;;7.40;99.90;;;;;;5022594;28;20425;-73
2023/04/03 08:42:58;;;;;;;3.50;3.30;;;7.40;99.90;;;;;;5016669;28;20201;-73
2023/04/03 08:45:45;;;;;;;6.43;2.30;;;7.50;99.90;;;;;;5001420;28;20652;-73
2023/04/03 08:48:19;;;;;;;3.13;2.93;;;7.70;99.90;;;;;;5010835;28;20427;-73
2023/04/03 08:50:49;;;;;;;5.20;3.03;;;7.60;99.90;;;;;;5018876;28;20560;-73
2023/04/03 08:53:17;;;;;;;3.20;2.90;;;7.60;99.90;;;;;;5010899;28;20915;-73
2023/04/03 08:55:47;;;;;;;4.20;2.60;;;7.70;99.90;;;;;;5019422;28;20804;-73
2023/04/03 08:58:19;;;;;;;6.20;3.23;;;7.50;99.90;;;;;;5015961;28;20438;-73
2023/04/03 09:00:51;;;;;;;5.67;3.00;;;7.40;99.90;;;;;;5026983;28;20438;-72
2023/04/03 09:03:20;;;;;;;3.67;2.83;;;7.20;99.90;;;;;;5014095;28;20432;-74
2023/04/03 09:05:57;;;;;;;3.60;2.60;;;7.30;99.90;;;;;;5021125;28;20876;-75
2023/04/03 09:08:54;;;;;;;2.87;2.67;;;7.10;99.90;;;;;;5018229;28;20435;-74
2023/04/03 09:11:34;;;;;;;2.73;2.50;;;7.10;99.90;;;;;;5014340;28;20475;-73
2023/04/03 09:14:02;;;;;;;4.83;2.77;;;7.20;99.90;;;;;;5014550;28;20607;-75
2023/04/03 09:16:48;;;;;;;4.93;2.73;;;7.20;99.90;;;;;;5022939;28;20423;-73
2023/04/03 09:19:32;;;;;;;6.33;3.40;;;7.20;99.90;;;;;;5021596;28;20451;-73
2023/04/03 09:22:09;;;;;;;5.00;2.97;;;7.20;99.90;;;;;;5022541;28;20446;-73
2023/04/03 09:24:36;;;;;;;6.13;2.50;;;7.10;99.90;;;;;;5014761;28;20431;-73
2023/04/03 09:27:07;;;;;;;2.50;2.33;;;7.00;99.90;;;;;;5008321;28;20861;-73
2023/04/03 09:29:36;;;;;;;3.70;2.57;;;6.80;99.90;;;;;;5001371;28;20435;-73
2023/04/03 09:32:09;;;;;;;2.60;2.37;;;6.80;99.90;;;;;;5022266;28;20482;-73
2023/04/03 09:34:41;;;;;;;4.83;2.47;;;6.70;99.90;;;;;;5022533;28;20475;-71
2023/04/03 09:37:08;;;;;;;2.63;1.90;;;6.60;99.90;;;;;;5014308;28;20433;-73
2023/04/03 09:39:53;;;;;;;3.37;2.17;;;6.60;99.90;;;;;;5015016;28;20503;-73
2023/04/03 09:42:21;;;;;;;4.53;2.37;;;6.70;99.90;;;;;;5014032;28;20460;-73
2023/04/03 09:45:01;;;;;;;2.63;2.43;;;6.70;99.90;;;;;;5014096;28;20426;-73
2023/04/03 09:47:33;;;;;;;3.30;2.10;;;6.90;99.90;;;;;;5015420;28;20431;-72
2023/04/03 09:50:12;;;;;;;3.30;2.73;;;6.90;99.90;;;;;;5006281;28;20445;-72
2023/04/03 09:52:39;;;;;;;2.10;2.00;;;6.90;99.90;;;;;;5029847;28;20518;-74
2023/04/03 09:55:13;;;;;;;2.50;2.03;;;6.90;99.90;;;;;;5014049;28;20434;-74
2023/04/03 09:57:39;;;;;;;15.03;3.57;;;7.00;99.90;;;;;;5013625;28;20436;-74
2023/04/03 10:00:18;;;;;;;7.27;2.77;;;7.10;99.90;;;;;;5013957;28;20422;-74
2023/04/03 10:02:44;;;;;;;2.50;2.17;;;7.10;99.90;;;;;;5004289;28;20542;-73
2023/04/03 10:05:26;;;;;;;1.80;1.70;;;7.10;99.90;;;;;;5018791;28;20942;-73
2023/04/03 10:07:51;;;;;;;3.20;1.90;;;7.20;99.90;;;;;;5015122;28;20196;-73
2023/04/03 10:10:25;;;;;;;4.30;2.50;;;7.10;99.90;;;;;;5019557;28;20518;-75
2023/04/03 10:13:11;;;;;;;4.27;2.50;;;7.00;99.90;;;;;;5014196;28;20240;-73
2023/04/03 10:16:04;;;;;;;9.30;2.27;;;6.90;99.90;;;;;;5023283;28;20426;-72
2023/04/03 10:19:01;;;;;;;3.03;1.90;;;7.00;99.90;;;;;;5012765;28;20798;-73
2023/04/03 10:21:50;;;;;;;2.80;2.60;;;7.20;99.90;;;;;;5021809;28;20453;-73
2023/04/03 10:24:23;;;;;;;2.60;1.80;;;7.20;99.90;;;;;;5013389;28;20437;-73
2023/04/03 10:27:07;;;;;;;2.07;1.90;;;7.40;99.90;;;;;;5015100;28;20432;-73
2023/04/03 10:29:57;;;;;;;5.17;2.20;;;7.30;99.90;;;;;;5017316;28;20424;-74
2023/04/03 10:32:44;;;;;;;5.73;2.00;;;7.40;99.90;;;;;;5012926;28;20483;-74
2023/04/03 10:35:30;;;;;;;5.43;2.30;;;7.50;99.90;;;;;;5021255;28;20425;-74
2023/04/03 10:38:27;;;;;;;2.60;2.20;;;7.30;99.90;;;;;;5015588;28;20428;-73
2023/04/03 10:41:03;;;;;;;5.80;2.23;;;7.10;99.90;;;;;;4996380;28;21025;-74
2023/04/03 10:43:53;;;;;;;2.23;2.07;;;7.10;99.90;;;;;;5013176;28;20426;-73
2023/04/03 10:46:28;;;;;;;4.43;2.53;;;6.80;99.90;;;;;;5026472;28;20465;-73
2023/04/03 10:49:19;;;;;;;1.80;1.70;;;6.90;99.90;;;;;;5024347;28;20426;-74
2023/04/03 10:51:52;;;;;;;4.87;2.43;;;6.80;99.90;;;;;;5015386;28;20558;-73
2023/04/03 10:54:25;;;;;;;2.53;2.33;;;6.90;99.90;;;;;;5018235;28;20452;-74
2023/04/03 10:56:55;;;;;;;2.80;2.60;;;7.00;99.90;;;;;;5016328;28;20830;-73
2023/04/03 10:59:32;;;;;;;1.93;1.80;;;6.90;99.90;;;;;;5000904;28;20882;-73
2023/04/03 11:02:18;;;;;;;4.13;1.90;;;7.00;99.90;;;;;;5020663;28;20481;-72
2023/04/03 11:04:47;;;;;;;2.00;1.70;;;6.80;99.90;;;;;;5012439;28;20438;-71
2023/04/03 11:07:26;;;;;;;3.33;1.53;;;6.90;99.90;;;;;;5012072;28;20448;-72
2023/04/03 11:09:57;;;;;;;3.03;1.77;;;7.00;99.90;;;;;;5020440;28;20422;-72
2023/04/03 11:12:43;;;;;;;2.73;1.47;;;7.00;99.90;;;;;;5018085;28;20470;-72
2023/04/03 11:15:14;;;;;;;3.20;1.90;;;7.10;99.90;;;;;;5021271;28;20509;-72
2023/04/03 11:17:50;;;;;;;1.90;1.53;;;7.30;99.90;;;;;;5012102;28;20424;-71
2023/04/03 11:20:27;;;;;;;1.53;1.43;;;7.40;99.90;;;;;;5012024;28;20428;-73
2023/04/03 11:23:16;;;;;;;1.80;1.30;;;7.30;99.90;;;;;;4994338;28;20493;-72
2023/04/03 11:25:43;;;;;;;2.97;1.60;;;7.20;99.90;;;;;;5019940;28;20434;-72
2023/04/03 11:28:14;;;;;;;6.60;1.83;;;7.20;99.90;;;;;;5011842;28;20518;-72
2023/04/03 11:30:56;;;;;;;4.10;1.80;;;7.20;99.90;;;;;;5019744;28;20493;-72
2023/04/03 11:33:28;;;;;;;2.50;2.10;;;7.20;99.90;;;;;;5020073;28;20443;-72
2023/04/03 11:36:23;;;;;;;4.20;1.70;;;7.10;99.90;;;;;;5021729;28;20430;-71
2023/04/03 11:38:52;;;;;;;6.23;1.90;;;7.00;99.90;;;;;;5021706;28;20430;-72
2023/04/03 11:41:26;;;;;;;1.60;1.50;;;7.00;99.90;;;;;;5024899;28;20505;-72
2023/04/03 11:43:59;;;;;;;3.00;2.03;;;7.00;99.90;;;;;;5014975;28;20431;-71
2023/04/03 11:46:50;;;;;;;2.63;2.07;;;7.00;99.90;;;;;;5023998;28;20444;-71
2023/04/03 11:49:50;;;;;;;3.70;2.03;;;7.10;99.90;;;;;;5015672;28;21006;-72
2023/04/03 11:52:42;;;;;;;2.90;1.70;;;7.30;99.90;;;;;;5019654;28;20477;-73
2023/04/03 11:55:23;;;;;;;3.70;1.57;;;7.40;99.90;;;;;;5013531;28;20424;-73
2023/04/03 11:57:57;;;;;;;3.50;1.73;;;7.50;99.90;;;;;;5019602;28;20431;-72
2023/04/03 12:00:47;;;;;;;13.83;8.90;;;7.50;99.90;;;;;;5011407;28;20424;-71
2023/04/03 12:03:25;;;;;;;4.87;2.07;;;7.60;99.90;;;;;;5015638;28;20454;-72
2023/04/03 12:06:05;;;;;;;3.73;1.67;;;7.60;99.90;;;;;;5012047;28;20432;-72
2023/04/03 12:08:40;;;;;;;4.57;1.87;;;7.50;99.90;;;;;;5011446;28;20928;-72
2023/04/03 12:11:08;;;;;;;2.33;2.23;;;7.50;99.90;;;;;;5019065;28;20474;-72
2023/04/03 12:13:35;;;;;;;2.50;1.70;;;7.60;99.90;;;;;;4993872;28;20449;-72
2023/04/03 12:16:01;;;;;;;2.17;1.43;;;7.80;99.90;;;;;;5025733;28;20468;-73
2023/04/03 12:18:45;;;;;;;1.90;1.70;;;7.90;99.90;;;;;;5017441;28;20441;-72
2023/04/03 12:21:13;;;;;;;2.83;1.67;;;7.90;99.90;;;;;;5022555;28;20537;-73
2023/04/03 12:23:57;;;;;;;7.80;1.80;;;7.90;99.90;;;;;;5015254;28;20441;-73
2023/04/03 12:26:27;;;;;;;2.53;2.17;;;8.00;99.90;;;;;;5019034;28;20433;-73
2023/04/03 12:28:55;;;;;;;3.60;1.63;;;7.80;99.90;;;;;;5016903;28;20422;-72
2023/04/03 12:31:24;;;;;;;1.73;1.63;;;7.70;99.90;;;;;;5017048;28;20916;-72
2023/04/03 12:34:12;;;;;;;2.10;1.63;;;7.60;99.90;;;;;;5019791;28;20436;-72
2023/04/03 12:37:03;;;;;;;1.80;1.70;;;7.80;99.90;;;;;;5020072;28;20438;-72
2023/04/03 12:39:48;;;;;;;3.57;1.67;;;7.90;99.90;;;;;;5020882;28;20438;-72
2023/04/03 12:42:32;;;;;;;4.33;2.20;;;8.00;99.90;;;;;;5014614;28;20446;-72
2023/04/03 12:45:09;;;;;;;4.13;1.83;;;7.90;99.90;;;;;;5011625;28;20436;-72
2023/04/03 12:47:37;;;;;;;2.40;1.30;;;8.00;99.90;;;;;;5023582;28;20427;-72
2023/04/03 12:50:15;;;;;;;4.93;2.00;;;7.90;99.90;;;;;;5018589;28;20429;-72
2023/04/03 12:52:47;;;;;;;4.93;2.23;;;7.80;99.90;;;;;;5010757;28;20517;-72
2023/04/03 12:55:21;;;;;;;2.77;1.37;;;7.70;99.90;;;;;;5019539;28;20418;-72
2023/04/03 12:57:47;;;;;;;1.80;1.50;;;7.70;99.90;;;;;;5022193;28;20943;-73
2023/04/03 13:00:20;;;;;;;2.00;1.90;;;7.70;99.90;;;;;;5018532;28;20422;-72
2023/04/03 13:02:46;;;;;;;2.37;2.00;;;7.90;99.90;;;;;;5010546;28;20226;-70
2023/04/03 13:05:16;;;;;;;3.27;2.00;;;7.80;99.90;;;;;;5010655;28;20928;-72
2023/04/03 13:07:43;;;;;;;2.83;2.20;;;7.70;99.90;;;;;;5012317;28;20611;-72
2023/04/03 13:10:08;;;;;;;2.33;2.00;;;7.60;99.90;;;;;;5018478;28;20419;-72
2023/04/03 13:13:06;;;;;;;3.30;1.80;;;7.60;99.90;;;;;;5017211;28;20477;-72
2023/04/03 13:15:41;;;;;;;2.07;1.80;;;7.70;99.90;;;;;;5008680;28;20263;-74
2023/04/03 13:18:31;;;;;;;7.40;1.50;;;7.90;99.90;;;;;;5020287;28;20445;-73
2023/04/03 13:21:13;;;;;;;3.73;2.10;;;8.00;99.90;;;;;;5021858;28;20448;-71
2023/04/03 13:23:44;;;;;;;2.03;1.70;;;8.10;99.90;;;;;;5014862;28;20476;-71
2023/04/03 13:26:10;;;;;;;1.73;1.60;;;8.10;99.90;;;;;;5016583;28;20475;-73
2023/04/03 13:28:38;;;;;;;4.70;1.43;;;8.10;99.90;;;;;;5015544;28;20426;-72
2023/04/03 13:31:16;;;;;;;3.67;2.50;;;8.00;99.90;;;;;;5018194;28;20517;-72
2023/04/03 13:34:05;;;;;;;5.00;4.30;;;8.00;99.90;;;;;;5010786;28;20435;-73
2023/04/03 13:36:34;;;;;;;2.13;1.50;;;8.10;99.90;;;;;;5010586;28;20511;-72
2023/04/03 13:39:06;;;;;;;3.47;1.60;;;8.10;99.90;;;;;;5027475;28;20424;-73
2023/04/03 13:41:38;;;;;;;1.20;1.20;;;8.20;99.90;;;;;;5010564;28;20929;-73
2023/04/03 13:44:21;;;;;;;1.87;1.73;;;8.30;99.90;;;;;;5028765;28;20415;-72
2023/04/03 13:46:53;;;;;;;1.63;1.50;;;8.40;99.90;;;;;;5013713;28;20431;-72
2023/04/03 13:49:31;;;;;;;2.33;1.67;;;8.40;99.90;;;;;;5020179;28;20773;-70
2023/04/03 13:51:57;;;;;;;2.50;2.00;;;8.50;99.90;;;;;;5030079;28;20469;-72
2023/04/03 13:54:36;;;;;;;1.70;1.60;;;8.60;99.90;;;;;;5026797;28;20438;-72
2023/04/03 13:57:03;;;;;;;4.00;1.67;;;8.80;99.90;;;;;;5031168;28;20416;-72
2023/04/03 13:59:33;;;;;;;2.63;2.07;;;8.60;99.90;;;;;;5026377;28;20444;-71
2023/04/03 14:02:01;;;;;;;2.27;2.03;;;8.60;99.90;;;;;;5014886;28;20516;-72
2023/04/03 14:04:28;;;;;;;2.50;1.80;;;8.60;99.90;;;;;;5002188;28;21015;-72
2023/04/03 14:06:54;;;;;;;6.43;2.63;;;8.40;99.90;;;;;;5013146;28;20522;-72
2023/04/03 14:09:22;;;;;;;3.97;1.80;;;8.30;99.90;;;;;;5015078;28;20517;-70
2023/04/03 14:11:50;;;;;;;4.30;1.97;;;8.20;99.90;;;;;;5013445;28;20468;-71
2023/04/03 14:14:26;;;;;;;3.27;1.70;;;8.10;99.90;;;;;;5017497;28;20424;-72
2023/04/03 14:16:55;;;;;;;1.87;1.73;;;8.10;99.90;;;;;;5016446;28;20423;-72
2023/04/03 14:19:27;;;;;;;2.03;1.93;;;8.10;99.90;;;;;;5019858;28;20528;-70
2023/04/03 14:21:54;;;;;;;4.00;1.63;;;8.30;99.90;;;;;;5013149;28;20475;-71
2023/04/03 14:24:21;;;;;;;1.83;1.50;;;8.30;99.90;;;;;;4995459;28;20435;-70
2023/04/03 14:26:48;;;;;;;3.10;1.70;;;8.30;99.90;;;;;;5013096;28;20586;-72
2023/04/03 14:29:14;;;;;;;4.27;1.90;;;8.40;99.90;;;;;;5014063;28;20939;-72
2023/04/03 14:31:42;;;;;;;4.77;2.00;;;8.30;99.90;;;;;;5013024;28;20472;-72
2023/04/03 14:34:09;;;;;;;2.43;2.00;;;8.10;99.90;;;;;;5012684;28;20551;-72
2023/04/03 14:36:35;;;;;;;2.00;1.53;;;8.10;99.90;;;;;;5012883;28;20437;-72
2023/04/03 14:39:01;;;;;;;1.47;1.33;;;8.10;99.90;;;;;;5019710;28;20423;-73
2023/04/03 14:41:27;;;;;;;2.03;1.90;;;8.10;99.90;;;;;;5012801;28;20217;-71
2023/04/03 14:43:53;;;;;;;4.23;1.83;;;8.00;99.90;;;;;;5012937;28;20486;-72